ACT        NSW        VIC        QLD        SA        WA        TAS        NT        INFO        CALC            by VK5ZD

  Atmospheric Gas Attenuation - ITU Rec 676-11   --------------- db/100km ---------------
VIC Stations Date Time Temp RH % AH g/m3 Dew Point Wind Direction Speed kph Gust kph Barometer mB Rainfall Since 9am 24GHz 47GHz 76GHz 122GHz 134GHz 241GHz
Aireys Inlet 03 08:20 14.7 68 8.56 9 6 6 1013.1 1.4 19.5 25.6 39.2 102.8 96.7 332.8
Ararat 03 06:00 6.9 93 7.16 5.8 13 1017.9 0 16.8 25.7 37.5 98.1 87.6 299.8
Avalon 03 08:20 14.8 73 9.25 10 13 13 1019.8 5.4 20.9 26.9 42.2 110.8 106.3 366.1
Bairnsdale 03 08:20 13.6 84 9.89 10.9 17 19 1019 3.4 22.4 28.3 45.5 119.6 116.7 402.4
Ballarat 03 08:20 11.6 78 8.11 7.9 20 24 1018.6 2.2 18.6 25.9 39.1 102.6 95.1 326.4
Ben Nevis 03 08:20 9.5 72 6.56 4.7 28 32 1013.1 3.2 15.4 23.8 33.7 88.0 76.5 261.3
Benalla 03 06:00 17 83 12.01 14.2 6 1013.4 0 26.7 30.6 52.2 137.5 140.2 485.1
Bendigo 03 08:20 14.8 56 7.09 6.1 20 30 1016.8 2 16.3 23.4 33.6 88.0 78.3 268.0
Cape Nelson 03 08:20 14.1 66 8.01 7.9 15 17 1020.9 0.2 18.3 25.1 37.6 98.6 90.9 312.3
Cape Otway 03 08:20 14.3 72 8.85 9.3 17 20 1015.6 0 20.1 26.2 40.7 106.7 101.3 348.5
Casterton 03 08:20 14 100 12.06 14 7 9 1020.4 0 27.0 32.1 54.8 144.5 147.4 509.7
Cerberus 03 08:20 15.5 69 9.12 9.8 15 19 1019.4 6.4 20.6 26.5 41.3 108.4 103.6 356.7
Charlton 03 08:20 15.2 63 8.18 8.2 17 24 1018.2 0.2 18.6 25.0 37.7 98.7 91.6 314.9
Coldstream 03 08:20 15.2 72 9.35 10.2 15 17 1019.3 11.4 21.1 26.9 42.4 111.3 107.0 368.8
Combienbar 03 08:20 11.6 95 9.88 10.9 4 6 1016.9 0.2 22.4 28.9 46.5 122.3 119.4 411.7
Dartmoor 03 08:20 12.4 100 10.93 12.5 0 0 1021.1 0 24.7 30.6 50.9 133.9 133.7 461.8
East Sale Airport 03 08:20 14.6 75 9.39 10.2 22 24 1019.1 2.8 21.2 27.2 42.9 112.5 108.4 373.5
Edenhope 03 08:20 12.1 82 8.79 9.1 9 11 1013.1 0 20.1 26.7 41.4 108.8 103.2 354.9
Eildon Fire Tower 03 08:20 11.1 99 9.97 10.9 4 6 1013.1 8 22.7 29.0 47.0 123.7 121.2 417.7
Essendon Airport 03 08:20 14.5 74 9.2 9.9 11 13 1019.4 3.6 20.8 26.9 42.1 110.6 106.0 365.1
Ferny Creek 03 08:20 12.5 76 8.36 8.5 6 6 1013.1 11.6 19.1 25.9 39.5 103.6 96.8 332.9
Frankston (Ballam Park) 03 08:20 15.3 71 9.27 10.2 4 6 1013.1 6.2 20.9 26.5 41.7 109.6 105.3 362.8
Gabo Island 03 08:20 15.1 93 12 14 44 48 1017.8 0 26.8 31.4 53.7 141.4 144.1 498.4
Geelong Racecourse 03 08:20 14 75 9.05 9.6 6 7 1013.1 3 20.5 26.6 41.5 109.0 104.1 358.5
Gelantipy 03 08:20 10.8 99 9.79 10.6 11 15 1016.2 0.4 22.3 29.0 46.6 122.5 119.3 411.3
Hamilton 03 08:20 12.4 85 9.29 10 17 19 1020.3 0 21.1 27.7 43.7 114.8 110.2 379.6
Hogan Island 03 08:20 14.8 80 10.13 11.4 44 48 1017.6 1.4 22.8 28.3 45.7 120.3 118.0 407.3
Hopetoun Airport 03 08:20 14.9 58 7.39 6.7 20 26 1019.5 0 17.0 23.9 34.8 91.1 82.1 281.3
Horsham 03 08:20 13.9 69 8.27 8.3 19 20 1020 0 18.9 25.6 38.7 101.5 94.5 324.7
Hunters Hill 03 08:20 17.9 69 10.53 12.1 0 0 1013.1 8.4 23.5 27.8 45.4 119.4 118.3 408.6
Kanagulk 03 08:20 13.6 77 9.06 9.6 19 24 1019.6 0 20.6 26.9 42.1 110.4 105.3 362.7
Kilmore Gap 03 08:20 10.5 87 8.44 8.4 20 28 1017.7 14.6 19.4 26.8 41.0 107.6 100.9 346.6
Kingfish B 03 08:20 19.1 59 9.67 10.9 35 41 1013.1 0 21.6 26.1 41.3 108.6 105.3 363.5
Kyabram 03 08:20 15.9 75 10.16 11.5 17 20 1013.1 3.8 22.8 27.8 45.0 118.4 116.4 401.6
Latrobe Valley 03 08:20 14.9 76 9.69 10.7 13 15 1019.1 14.8 21.9 27.6 43.9 115.4 112.0 386.2
Laverton 03 08:20 15 66 8.46 8.7 15 15 1019.8 4.4 19.2 25.6 38.9 102.1 95.6 328.8
Longerenong 03 08:20 14.1 64 7.77 7.4 15 17 1013.1 0 17.8 24.5 36.4 95.3 87.3 299.5
Mallacoota 03 08:20 14.9 89 11.34 13.1 17 22 1017.9 0 25.4 30.4 50.9 134.0 134.9 466.3
Mangalore 03 08:20 14.8 71 8.99 9.6 22 30 1016.8 5 20.4 26.4 41.0 107.7 102.6 353.1
Melbourne (Olympic Park) 03 08:20 16.1 66 9.05 9.8 7 9 1019.6 8.8 20.4 26.2 40.7 106.8 101.9 350.9
Melbourne Airport 03 08:20 14 72 8.68 9 13 13 1019.5 3.6 19.7 26.2 40.3 105.7 99.7 343.1
Mildura 03 08:20 14.7 58 7.3 6.5 19 22 1019.8 0 16.8 23.8 34.6 90.5 81.2 278.2
Moorabbin Airport 03 08:20 16 76 10.35 11.8 9 13 1019.5 2.8 23.2 28.3 46.1 121.1 119.4 412.2
Mortlake 03 08:20 14 99 11.94 13.8 9 11 1020.1 0 26.7 31.8 54.3 143.0 145.6 503.4
Mount Baw Baw 03 08:20 9.5 98 8.92 9.2 7 9 1013.1 19.6 20.5 27.7 43.4 114.0 108.6 373.4
Mount Buller 03 08:20 11.3 93 9.49 10.2 7 13 1013.1 9 21.6 28.1 44.8 117.9 114.0 392.7
Mount Gellibrand 03 08:20 12.7 100 11.13 12.8 15 15 1019.3 0 25.1 30.8 51.5 135.5 136.0 469.6
Mount Hotham Airport 03 08:20 15.1 81 10.45 11.9 7 9 1016.9 2.2 23.5 28.7 46.9 123.3 121.9 420.9
Mount Moornapa 03 08:20 9.9 100 9.34 9.9 7 11 1013.1 10.2 21.4 28.3 45.0 118.3 114.0 392.4
Mount Nowa Nowa 03 08:20 10.8 100 9.89 10.8 7 9 1013.1 3 22.5 29.0 46.9 123.3 120.5 415.3
Mount William 03 08:20 8 74 6.12 3.6 9 11 1013.1 0 14.5 23.5 32.6 85.1 72.3 246.1
Nhill Aerodrome 03 08:20 14.8 65 8.23 8.3 20 24 1020.2 0 18.7 25.3 38.1 100.0 92.9 319.3
Orbost 03 08:20 13.9 99 11.87 13.7 9 11 1019.1 0 26.6 31.7 54.0 142.2 144.6 500.1
Port Fairy 03 08:20 15.1 69 8.9 9.6 11 13 1020.5 0 20.2 26.3 40.7 106.7 101.3 348.7
Portland Airport 03 08:20 13.6 68 8 7.8 11 13 1020.9 0 18.3 25.3 37.8 99.1 91.4 313.8
Pound Creek 03 08:20 15.2 77 9.99 11.2 17 20 1019.2 5.6 22.5 28.0 45.0 118.3 115.7 399.0
Puckapunyal West (Defence) 03 08:20 13.5 68 7.95 7.7 37 50 1013.1 4.4 18.2 24.9 37.4 97.9 90.3 309.9
Puckapunyal-Lyon Hill (Defence) 03 08:20 14.4 71 8.78 9.2 32 37 1013.1 5.4 19.9 26.0 40.2 105.6 100.0 344.2
Redesdale 03 08:20 15.2 60 7.79 7.5 15 19 1013.1 7.2 17.8 24.2 36.0 94.2 86.3 296.3
Rhyll 03 08:20 16.1 69 9.46 10.4 11 13 1019.4 6.2 21.3 26.8 42.3 111.2 107.3 369.7
Rutherglen 03 08:20 20.7 81 14.58 17.3 6 7 1013.1 6.4 31.9 33.8 60.7 160.4 169.6 588.1
Scoresby 03 08:20 15.2 69 8.96 9.7 0 0 1013.1 11.2 20.3 26.1 40.5 106.4 101.3 348.9
Sheoaks 03 08:20 12.4 93 10.16 11.3 7 9 1019.6 10.6 23.0 29.2 47.4 124.6 122.4 422.3
Shepparton 03 08:20 16.5 74 10.39 11.9 24 26 1015.9 2.2 23.3 28.1 45.8 120.3 118.8 410.3
Stawell 03 08:20 13.9 62 7.43 6.7 19 20 1018.9 0.2 17.1 24.2 35.4 92.6 83.6 286.5
Swan Hill 03 08:20 14.3 59 7.25 6.4 19 24 1018.1 1.4 16.7 23.8 34.5 90.2 80.8 277.0
Tatura 03 08:20 15.4 73 9.59 10.6 22 28 1013.1 11.8 21.6 27.0 43.0 112.9 109.4 377.2
Victoria Portable F 03 08:10 10.4 65 6.27 4.1 376 376 1013.1 4.8 14.8 23.1 32.2 84.1 72.0 245.4
Viewbank 03 08:20 14.7 71 8.94 9.5 6 7 1019.4 6.6 20.3 26.4 41.0 107.5 102.2 352.0
Walpeup 03 08:20 15 57 7.31 6.5 17 19 1013.1 0 16.8 23.5 34.2 89.6 80.5 276.0
Wangaratta 03 08:20 20.3 77 13.54 16.1 9 11 1014.6 1.4 29.7 32.1 56.6 149.2 155.7 539.5
Warracknabeal Airport 03 08:20 14.9 59 7.52 7 22 30 1019.2 0 17.2 24.1 35.3 92.4 83.7 287.0
Warragul (Nilma North) 03 08:20 14.7 79 9.95 11.2 7 9 1013.1 12.4 22.4 27.8 44.8 117.9 115.3 397.7
Warrnambool 03 08:20 14.1 92 11.17 12.8 13 15 1020.4 0 25.1 30.4 50.8 133.7 134.2 463.5
Westmere 03 08:20 12.9 89 10.03 11.1 7 11 1019.7 3.6 22.7 28.8 46.5 122.3 119.8 413.1
Wilsons Promontory 03 08:20 14.9 86 10.96 12.6 37 43 1017.3 4.6 24.6 29.7 49.2 129.5 129.5 447.2
Yanakie 03 08:20 15.2 75 9.73 10.8 26 32 1013.1 6 21.9 27.3 43.6 114.7 111.6 384.8
Yarram Airport 03 08:20 15.8 72 9.69 10.8 15 17 1018.7 2.8 21.8 27.3 43.4 114.0 110.7 381.7
Yarrawonga 03 08:20 19 88 14.34 16.9 15 17 1013.1 3.6 31.6 34.0 61.0 161.1 169.9 589.0

Last Refresh: 03-Dec-2021 08:02:29

Bureau of Meteorology